sensor_id;sensor_type;location;lat;lon;timestamp;P1;durP1;ratioP1;P2;durP2;ratioP2
51194;SDS011;37259;49.972;19.850;2023-04-24T00:00:41;7.7;;;4.5;;
51194;SDS011;37259;49.972;19.850;2023-04-24T00:01:41;7.7;;;4.5;;
51194;SDS011;37259;49.972;19.850;2023-04-24T00:02:42;7.7;;;4.5;;
51194;SDS011;37259;49.972;19.850;2023-04-24T00:03:41;7.7;;;4.5;;
51194;SDS011;37259;49.972;19.850;2023-04-24T00:04:41;7.7;;;4.5;;
51194;SDS011;37259;49.972;19.850;2023-04-24T00:05:41;7.7;;;4.5;;
51194;SDS011;37259;49.972;19.850;2023-04-24T00:06:41;7.7;;;4.5;;
51194;SDS011;37259;49.972;19.850;2023-04-24T00:07:41;7.7;;;4.5;;
51194;SDS011;37259;49.972;19.850;2023-04-24T00:08:41;10.7;;;4.8;;
51194;SDS011;37259;49.972;19.850;2023-04-24T00:09:41;10.7;;;4.8;;
51194;SDS011;37259;49.972;19.850;2023-04-24T00:10:41;10.7;;;4.8;;
51194;SDS011;37259;49.972;19.850;2023-04-24T00:11:41;10.7;;;4.8;;
51194;SDS011;37259;49.972;19.850;2023-04-24T00:12:41;10.7;;;4.8;;
51194;SDS011;37259;49.972;19.850;2023-04-24T00:13:41;10.7;;;4.8;;
51194;SDS011;37259;49.972;19.850;2023-04-24T00:14:41;10.7;;;4.8;;
51194;SDS011;37259;49.972;19.850;2023-04-24T00:15:41;10.7;;;4.8;;
51194;SDS011;37259;49.972;19.850;2023-04-24T00:16:41;10.7;;;4.8;;
51194;SDS011;37259;49.972;19.850;2023-04-24T00:17:41;10.7;;;4.8;;
51194;SDS011;37259;49.972;19.850;2023-04-24T00:18:41;10.7;;;4.8;;
51194;SDS011;37259;49.972;19.850;2023-04-24T00:19:41;10.7;;;4.8;;
51194;SDS011;37259;49.972;19.850;2023-04-24T00:20:41;10.7;;;4.8;;
51194;SDS011;37259;49.972;19.850;2023-04-24T00:21:41;10.7;;;4.8;;
51194;SDS011;37259;49.972;19.850;2023-04-24T00:22:41;10.7;;;4.8;;
51194;SDS011;37259;49.972;19.850;2023-04-24T00:23:41;10.7;;;4.8;;
51194;SDS011;37259;49.972;19.850;2023-04-24T00:24:41;10.7;;;4.8;;
51194;SDS011;37259;49.972;19.850;2023-04-24T00:25:41;10.7;;;4.8;;
51194;SDS011;37259;49.972;19.850;2023-04-24T00:26:41;10.7;;;4.8;;
51194;SDS011;37259;49.972;19.850;2023-04-24T00:27:41;10.7;;;4.8;;
51194;SDS011;37259;49.972;19.850;2023-04-24T00:28:41;10.7;;;4.8;;
51194;SDS011;37259;49.972;19.850;2023-04-24T00:29:41;10.7;;;4.8;;
51194;SDS011;37259;49.972;19.850;2023-04-24T00:30:41;10.7;;;4.8;;
51194;SDS011;37259;49.972;19.850;2023-04-24T00:31:41;10.7;;;4.8;;
51194;SDS011;37259;49.972;19.850;2023-04-24T00:32:41;10.7;;;4.8;;
51194;SDS011;37259;49.972;19.850;2023-04-24T00:33:41;10.7;;;4.8;;
51194;SDS011;37259;49.972;19.850;2023-04-24T00:34:41;10.7;;;4.8;;
51194;SDS011;37259;49.972;19.850;2023-04-24T00:35:41;10.7;;;4.8;;
51194;SDS011;37259;49.972;19.850;2023-04-24T00:36:41;10.7;;;4.8;;
51194;SDS011;37259;49.972;19.850;2023-04-24T00:37:41;10.7;;;4.8;;
51194;SDS011;37259;49.972;19.850;2023-04-24T00:38:41;7.1;;;4.2;;
51194;SDS011;37259;49.972;19.850;2023-04-24T00:39:41;7.1;;;4.2;;
51194;SDS011;37259;49.972;19.850;2023-04-24T00:40:41;7.1;;;4.2;;
51194;SDS011;37259;49.972;19.850;2023-04-24T00:41:41;7.1;;;4.2;;
51194;SDS011;37259;49.972;19.850;2023-04-24T00:42:41;7.1;;;4.2;;
51194;SDS011;37259;49.972;19.850;2023-04-24T00:43:41;7.1;;;4.2;;
51194;SDS011;37259;49.972;19.850;2023-04-24T00:44:41;7.1;;;4.2;;
51194;SDS011;37259;49.972;19.850;2023-04-24T00:45:41;7.1;;;4.2;;
51194;SDS011;37259;49.972;19.850;2023-04-24T00:46:41;7.1;;;4.2;;
51194;SDS011;37259;49.972;19.850;2023-04-24T00:47:41;7.1;;;4.2;;
51194;SDS011;37259;49.972;19.850;2023-04-24T00:48:41;7.1;;;4.2;;
51194;SDS011;37259;49.972;19.850;2023-04-24T00:49:41;7.1;;;4.2;;
51194;SDS011;37259;49.972;19.850;2023-04-24T00:50:41;7.1;;;4.2;;
51194;SDS011;37259;49.972;19.850;2023-04-24T00:51:41;7.1;;;4.2;;
51194;SDS011;37259;49.972;19.850;2023-04-24T00:52:41;7.1;;;4.2;;
51194;SDS011;37259;49.972;19.850;2023-04-24T00:53:41;7.1;;;4.2;;
51194;SDS011;37259;49.972;19.850;2023-04-24T00:54:41;7.1;;;4.2;;
51194;SDS011;37259;49.972;19.850;2023-04-24T00:55:41;7.1;;;4.2;;
51194;SDS011;37259;49.972;19.850;2023-04-24T00:56:42;7.1;;;4.2;;
51194;SDS011;37259;49.972;19.850;2023-04-24T00:57:41;7.1;;;4.2;;
51194;SDS011;37259;49.972;19.850;2023-04-24T00:58:41;7.1;;;4.2;;
51194;SDS011;37259;49.972;19.850;2023-04-24T00:59:41;7.1;;;4.2;;
51194;SDS011;37259;49.972;19.850;2023-04-24T01:00:41;7.1;;;4.2;;
51194;SDS011;37259;49.972;19.850;2023-04-24T01:01:41;7.1;;;4.2;;
51194;SDS011;37259;49.972;19.850;2023-04-24T01:02:42;7.1;;;4.2;;
51194;SDS011;37259;49.972;19.850;2023-04-24T01:03:41;7.1;;;4.2;;
51194;SDS011;37259;49.972;19.850;2023-04-24T01:04:41;7.1;;;4.2;;
51194;SDS011;37259;49.972;19.850;2023-04-24T01:05:41;7.1;;;4.2;;
51194;SDS011;37259;49.972;19.850;2023-04-24T01:06:41;7.1;;;4.2;;
51194;SDS011;37259;49.972;19.850;2023-04-24T01:07:43;7.1;;;4.2;;
51194;SDS011;37259;49.972;19.850;2023-04-24T01:08:41;7.6;;;3.9;;
51194;SDS011;37259;49.972;19.850;2023-04-24T01:09:41;7.6;;;3.9;;
51194;SDS011;37259;49.972;19.850;2023-04-24T01:10:41;7.6;;;3.9;;
51194;SDS011;37259;49.972;19.850;2023-04-24T01:11:41;7.6;;;3.9;;
51194;SDS011;37259;49.972;19.850;2023-04-24T01:12:41;7.6;;;3.9;;
51194;SDS011;37259;49.972;19.850;2023-04-24T01:13:41;7.6;;;3.9;;
51194;SDS011;37259;49.972;19.850;2023-04-24T01:14:41;7.6;;;3.9;;
51194;SDS011;37259;49.972;19.850;2023-04-24T01:15:41;7.6;;;3.9;;
51194;SDS011;37259;49.972;19.850;2023-04-24T01:16:41;7.6;;;3.9;;
51194;SDS011;37259;49.972;19.850;2023-04-24T01:17:41;7.6;;;3.9;;
51194;SDS011;37259;49.972;19.850;2023-04-24T01:18:41;7.6;;;3.9;;
51194;SDS011;37259;49.972;19.850;2023-04-24T01:19:41;7.6;;;3.9;;
51194;SDS011;37259;49.972;19.850;2023-04-24T01:20:42;7.6;;;3.9;;
51194;SDS011;37259;49.972;19.850;2023-04-24T01:21:41;7.6;;;3.9;;
51194;SDS011;37259;49.972;19.850;2023-04-24T01:22:42;7.6;;;3.9;;
51194;SDS011;37259;49.972;19.850;2023-04-24T01:23:41;7.6;;;3.9;;
51194;SDS011;37259;49.972;19.850;2023-04-24T01:24:41;7.6;;;3.9;;
51194;SDS011;37259;49.972;19.850;2023-04-24T01:25:41;7.6;;;3.9;;
51194;SDS011;37259;49.972;19.850;2023-04-24T01:26:41;7.6;;;3.9;;
51194;SDS011;37259;49.972;19.850;2023-04-24T01:27:41;7.6;;;3.9;;
51194;SDS011;37259;49.972;19.850;2023-04-24T01:28:41;7.6;;;3.9;;
51194;SDS011;37259;49.972;19.850;2023-04-24T01:29:41;7.6;;;3.9;;
51194;SDS011;37259;49.972;19.850;2023-04-24T01:30:41;7.6;;;3.9;;
51194;SDS011;37259;49.972;19.850;2023-04-24T01:31:41;7.6;;;3.9;;
51194;SDS011;37259;49.972;19.850;2023-04-24T01:32:41;7.6;;;3.9;;
51194;SDS011;37259;49.972;19.850;2023-04-24T01:33:42;7.6;;;3.9;;
51194;SDS011;37259;49.972;19.850;2023-04-24T01:34:41;7.6;;;3.9;;
51194;SDS011;37259;49.972;19.850;2023-04-24T01:35:41;7.6;;;3.9;;
51194;SDS011;37259;49.972;19.850;2023-04-24T01:36:41;7.6;;;3.9;;
51194;SDS011;37259;49.972;19.850;2023-04-24T01:37:41;6.9;;;3.7;;
51194;SDS011;37259;49.972;19.850;2023-04-24T01:38:41;6.9;;;3.7;;
51194;SDS011;37259;49.972;19.850;2023-04-24T01:39:41;6.9;;;3.7;;
51194;SDS011;37259;49.972;19.850;2023-04-24T01:40:41;6.9;;;3.7;;
51194;SDS011;37259;49.972;19.850;2023-04-24T01:41:41;6.9;;;3.7;;
51194;SDS011;37259;49.972;19.850;2023-04-24T01:42:41;6.9;;;3.7;;
51194;SDS011;37259;49.972;19.850;2023-04-24T01:43:41;6.9;;;3.7;;
51194;SDS011;37259;49.972;19.850;2023-04-24T01:44:41;6.9;;;3.7;;
51194;SDS011;37259;49.972;19.850;2023-04-24T01:45:41;6.9;;;3.7;;
51194;SDS011;37259;49.972;19.850;2023-04-24T01:46:41;6.9;;;3.7;;
51194;SDS011;37259;49.972;19.850;2023-04-24T01:47:41;6.9;;;3.7;;
51194;SDS011;37259;49.972;19.850;2023-04-24T01:48:41;6.9;;;3.7;;
51194;SDS011;37259;49.972;19.850;2023-04-24T01:49:41;6.9;;;3.7;;
51194;SDS011;37259;49.972;19.850;2023-04-24T01:50:41;6.9;;;3.7;;
51194;SDS011;37259;49.972;19.850;2023-04-24T01:51:41;6.9;;;3.7;;
51194;SDS011;37259;49.972;19.850;2023-04-24T01:52:41;6.9;;;3.7;;
51194;SDS011;37259;49.972;19.850;2023-04-24T01:53:41;6.9;;;3.7;;
51194;SDS011;37259;49.972;19.850;2023-04-24T01:54:41;6.9;;;3.7;;
51194;SDS011;37259;49.972;19.850;2023-04-24T01:55:41;6.9;;;3.7;;
51194;SDS011;37259;49.972;19.850;2023-04-24T01:56:42;6.9;;;3.7;;
51194;SDS011;37259;49.972;19.850;2023-04-24T01:57:41;6.9;;;3.7;;
51194;SDS011;37259;49.972;19.850;2023-04-24T01:58:41;6.9;;;3.7;;
51194;SDS011;37259;49.972;19.850;2023-04-24T01:59:41;6.9;;;3.7;;
51194;SDS011;37259;49.972;19.850;2023-04-24T02:00:41;6.9;;;3.7;;
51194;SDS011;37259;49.972;19.850;2023-04-24T02:01:41;6.9;;;3.7;;
51194;SDS011;37259;49.972;19.850;2023-04-24T02:02:41;6.9;;;3.7;;
51194;SDS011;37259;49.972;19.850;2023-04-24T02:03:41;6.9;;;3.7;;
51194;SDS011;37259;49.972;19.850;2023-04-24T02:04:41;6.9;;;3.7;;
51194;SDS011;37259;49.972;19.850;2023-04-24T02:05:43;6.9;;;3.7;;
51194;SDS011;37259;49.972;19.850;2023-04-24T02:06:41;6.9;;;3.7;;
51194;SDS011;37259;49.972;19.850;2023-04-24T02:07:41;7;;;3.8;;
51194;SDS011;37259;49.972;19.850;2023-04-24T02:08:41;7;;;3.8;;
51194;SDS011;37259;49.972;19.850;2023-04-24T02:09:42;7;;;3.8;;
51194;SDS011;37259;49.972;19.850;2023-04-24T02:10:41;7;;;3.8;;
51194;SDS011;37259;49.972;19.850;2023-04-24T02:11:41;7;;;3.8;;
51194;SDS011;37259;49.972;19.850;2023-04-24T02:12:41;7;;;3.8;;
51194;SDS011;37259;49.972;19.850;2023-04-24T02:13:41;7;;;3.8;;
51194;SDS011;37259;49.972;19.850;2023-04-24T02:14:41;7;;;3.8;;
51194;SDS011;37259;49.972;19.850;2023-04-24T02:15:41;7;;;3.8;;
51194;SDS011;37259;49.972;19.850;2023-04-24T02:16:41;7;;;3.8;;
51194;SDS011;37259;49.972;19.850;2023-04-24T02:17:41;7;;;3.8;;
51194;SDS011;37259;49.972;19.850;2023-04-24T02:18:42;7;;;3.8;;
51194;SDS011;37259;49.972;19.850;2023-04-24T02:19:41;7;;;3.8;;
51194;SDS011;37259;49.972;19.850;2023-04-24T02:20:41;7;;;3.8;;
51194;SDS011;37259;49.972;19.850;2023-04-24T02:21:41;7;;;3.8;;
51194;SDS011;37259;49.972;19.850;2023-04-24T02:22:41;7;;;3.8;;
51194;SDS011;37259;49.972;19.850;2023-04-24T02:23:41;7;;;3.8;;
51194;SDS011;37259;49.972;19.850;2023-04-24T02:24:41;7;;;3.8;;
51194;SDS011;37259;49.972;19.850;2023-04-24T02:25:41;7;;;3.8;;
51194;SDS011;37259;49.972;19.850;2023-04-24T02:26:41;7;;;3.8;;
51194;SDS011;37259;49.972;19.850;2023-04-24T02:27:42;7;;;3.8;;
51194;SDS011;37259;49.972;19.850;2023-04-24T02:28:41;7;;;3.8;;
51194;SDS011;37259;49.972;19.850;2023-04-24T02:29:41;7;;;3.8;;
51194;SDS011;37259;49.972;19.850;2023-04-24T02:30:41;7;;;3.8;;
51194;SDS011;37259;49.972;19.850;2023-04-24T02:31:41;7;;;3.8;;
51194;SDS011;37259;49.972;19.850;2023-04-24T02:32:41;7;;;3.8;;
51194;SDS011;37259;49.972;19.850;2023-04-24T02:33:42;7;;;3.8;;
51194;SDS011;37259;49.972;19.850;2023-04-24T02:34:41;7;;;3.8;;
51194;SDS011;37259;49.972;19.850;2023-04-24T02:35:41;7;;;3.8;;
51194;SDS011;37259;49.972;19.850;2023-04-24T02:36:41;7;;;3.8;;
51194;SDS011;37259;49.972;19.850;2023-04-24T02:37:41;7.1;;;3.8;;
51194;SDS011;37259;49.972;19.850;2023-04-24T02:38:41;7.1;;;3.8;;
51194;SDS011;37259;49.972;19.850;2023-04-24T02:39:41;7.1;;;3.8;;
51194;SDS011;37259;49.972;19.850;2023-04-24T02:40:41;7.1;;;3.8;;
51194;SDS011;37259;49.972;19.850;2023-04-24T02:41:41;7.1;;;3.8;;
51194;SDS011;37259;49.972;19.850;2023-04-24T02:42:42;7.1;;;3.8;;
51194;SDS011;37259;49.972;19.850;2023-04-24T02:43:41;7.1;;;3.8;;
51194;SDS011;37259;49.972;19.850;2023-04-24T02:44:41;7.1;;;3.8;;
51194;SDS011;37259;49.972;19.850;2023-04-24T02:45:41;7.1;;;3.8;;
51194;SDS011;37259;49.972;19.850;2023-04-24T02:46:41;7.1;;;3.8;;
51194;SDS011;37259;49.972;19.850;2023-04-24T02:47:41;7.1;;;3.8;;
51194;SDS011;37259;49.972;19.850;2023-04-24T02:48:41;7.1;;;3.8;;
51194;SDS011;37259;49.972;19.850;2023-04-24T02:49:41;7.1;;;3.8;;
51194;SDS011;37259;49.972;19.850;2023-04-24T02:50:41;7.1;;;3.8;;
51194;SDS011;37259;49.972;19.850;2023-04-24T02:51:41;7.1;;;3.8;;
51194;SDS011;37259;49.972;19.850;2023-04-24T02:52:41;7.1;;;3.8;;
51194;SDS011;37259;49.972;19.850;2023-04-24T02:53:41;7.1;;;3.8;;
51194;SDS011;37259;49.972;19.850;2023-04-24T02:54:41;7.1;;;3.8;;
51194;SDS011;37259;49.972;19.850;2023-04-24T02:55:41;7.1;;;3.8;;
51194;SDS011;37259;49.972;19.850;2023-04-24T02:56:41;7.1;;;3.8;;
51194;SDS011;37259;49.972;19.850;2023-04-24T02:57:41;7.1;;;3.8;;
51194;SDS011;37259;49.972;19.850;2023-04-24T02:58:41;7.1;;;3.8;;
51194;SDS011;37259;49.972;19.850;2023-04-24T02:59:41;7.1;;;3.8;;
51194;SDS011;37259;49.972;19.850;2023-04-24T03:00:41;7.1;;;3.8;;
51194;SDS011;37259;49.972;19.850;2023-04-24T03:01:41;7.1;;;3.8;;
51194;SDS011;37259;49.972;19.850;2023-04-24T03:02:41;7.1;;;3.8;;
51194;SDS011;37259;49.972;19.850;2023-04-24T03:03:41;7.1;;;3.8;;
51194;SDS011;37259;49.972;19.850;2023-04-24T03:04:41;7.1;;;3.8;;
51194;SDS011;37259;49.972;19.850;2023-04-24T03:05:42;7.1;;;3.8;;
51194;SDS011;37259;49.972;19.850;2023-04-24T03:06:41;7.1;;;3.8;;
51194;SDS011;37259;49.972;19.850;2023-04-24T03:07:41;8;;;3.7;;
51194;SDS011;37259;49.972;19.850;2023-04-24T03:08:41;8;;;3.7;;
51194;SDS011;37259;49.972;19.850;2023-04-24T03:09:41;8;;;3.7;;
51194;SDS011;37259;49.972;19.850;2023-04-24T03:10:41;8;;;3.7;;
51194;SDS011;37259;49.972;19.850;2023-04-24T03:11:41;8;;;3.7;;
51194;SDS011;37259;49.972;19.850;2023-04-24T03:12:41;8;;;3.7;;
51194;SDS011;37259;49.972;19.850;2023-04-24T03:13:41;8;;;3.7;;
51194;SDS011;37259;49.972;19.850;2023-04-24T03:14:42;8;;;3.7;;
51194;SDS011;37259;49.972;19.850;2023-04-24T03:15:41;8;;;3.7;;
51194;SDS011;37259;49.972;19.850;2023-04-24T03:16:41;8;;;3.7;;
51194;SDS011;37259;49.972;19.850;2023-04-24T03:17:41;8;;;3.7;;
51194;SDS011;37259;49.972;19.850;2023-04-24T03:18:41;8;;;3.7;;
51194;SDS011;37259;49.972;19.850;2023-04-24T03:19:41;8;;;3.7;;
51194;SDS011;37259;49.972;19.850;2023-04-24T03:20:41;8;;;3.7;;
51194;SDS011;37259;49.972;19.850;2023-04-24T03:21:41;8;;;3.7;;
51194;SDS011;37259;49.972;19.850;2023-04-24T03:22:41;8;;;3.7;;
51194;SDS011;37259;49.972;19.850;2023-04-24T03:23:41;8;;;3.7;;
51194;SDS011;37259;49.972;19.850;2023-04-24T03:24:41;8;;;3.7;;
51194;SDS011;37259;49.972;19.850;2023-04-24T03:25:41;8;;;3.7;;
51194;SDS011;37259;49.972;19.850;2023-04-24T03:26:41;8;;;3.7;;
51194;SDS011;37259;49.972;19.850;2023-04-24T03:27:41;8;;;3.7;;
51194;SDS011;37259;49.972;19.850;2023-04-24T03:28:41;8;;;3.7;;
51194;SDS011;37259;49.972;19.850;2023-04-24T03:29:41;8;;;3.7;;
51194;SDS011;37259;49.972;19.850;2023-04-24T03:30:41;8;;;3.7;;
51194;SDS011;37259;49.972;19.850;2023-04-24T03:31:42;8;;;3.7;;
51194;SDS011;37259;49.972;19.850;2023-04-24T03:32:42;8;;;3.7;;
51194;SDS011;37259;49.972;19.850;2023-04-24T03:33:41;8;;;3.7;;
51194;SDS011;37259;49.972;19.850;2023-04-24T03:34:41;8;;;3.7;;
51194;SDS011;37259;49.972;19.850;2023-04-24T03:35:41;8;;;3.7;;
51194;SDS011;37259;49.972;19.850;2023-04-24T03:36:41;8;;;3.7;;
51194;SDS011;37259;49.972;19.850;2023-04-24T03:37:41;9.9;;;3.8;;
51194;SDS011;37259;49.972;19.850;2023-04-24T03:38:41;9.9;;;3.8;;
51194;SDS011;37259;49.972;19.850;2023-04-24T03:39:42;9.9;;;3.8;;
51194;SDS011;37259;49.972;19.850;2023-04-24T03:40:41;9.9;;;3.8;;
51194;SDS011;37259;49.972;19.850;2023-04-24T03:41:41;9.9;;;3.8;;
51194;SDS011;37259;49.972;19.850;2023-04-24T03:42:41;9.9;;;3.8;;
51194;SDS011;37259;49.972;19.850;2023-04-24T03:43:41;9.9;;;3.8;;
51194;SDS011;37259;49.972;19.850;2023-04-24T03:44:41;9.9;;;3.8;;
51194;SDS011;37259;49.972;19.850;2023-04-24T03:45:41;9.9;;;3.8;;
51194;SDS011;37259;49.972;19.850;2023-04-24T03:46:41;9.9;;;3.8;;
51194;SDS011;37259;49.972;19.850;2023-04-24T03:47:41;9.9;;;3.8;;
51194;SDS011;37259;49.972;19.850;2023-04-24T03:48:41;9.9;;;3.8;;
51194;SDS011;37259;49.972;19.850;2023-04-24T03:49:41;9.9;;;3.8;;
51194;SDS011;37259;49.972;19.850;2023-04-24T03:50:41;9.9;;;3.8;;
51194;SDS011;37259;49.972;19.850;2023-04-24T03:51:41;9.9;;;3.8;;
51194;SDS011;37259;49.972;19.850;2023-04-24T03:52:41;9.9;;;3.8;;
51194;SDS011;37259;49.972;19.850;2023-04-24T03:53:41;9.9;;;3.8;;
51194;SDS011;37259;49.972;19.850;2023-04-24T03:54:41;9.9;;;3.8;;
51194;SDS011;37259;49.972;19.850;2023-04-24T03:55:41;9.9;;;3.8;;
51194;SDS011;37259;49.972;19.850;2023-04-24T03:56:41;9.9;;;3.8;;
51194;SDS011;37259;49.972;19.850;2023-04-24T03:57:41;9.9;;;3.8;;
51194;SDS011;37259;49.972;19.850;2023-04-24T03:58:41;9.9;;;3.8;;
51194;SDS011;37259;49.972;19.850;2023-04-24T03:59:41;9.9;;;3.8;;
51194;SDS011;37259;49.972;19.850;2023-04-24T04:00:41;9.9;;;3.8;;
51194;SDS011;37259;49.972;19.850;2023-04-24T04:01:41;9.9;;;3.8;;
51194;SDS011;37259;49.972;19.850;2023-04-24T04:02:41;9.9;;;3.8;;
51194;SDS011;37259;49.972;19.850;2023-04-24T04:03:41;9.9;;;3.8;;
51194;SDS011;37259;49.972;19.850;2023-04-24T04:04:41;9.9;;;3.8;;
51194;SDS011;37259;49.972;19.850;2023-04-24T04:05:41;9.9;;;3.8;;
51194;SDS011;37259;49.972;19.850;2023-04-24T04:06:42;9.9;;;3.8;;
51194;SDS011;37259;49.972;19.850;2023-04-24T04:07:41;6.5;;;4.2;;
51194;SDS011;37259;49.972;19.850;2023-04-24T04:08:41;6.5;;;4.2;;
51194;SDS011;37259;49.972;19.850;2023-04-24T04:09:41;6.5;;;4.2;;
51194;SDS011;37259;49.972;19.850;2023-04-24T04:10:41;6.5;;;4.2;;
51194;SDS011;37259;49.972;19.850;2023-04-24T04:11:41;6.5;;;4.2;;
51194;SDS011;37259;49.972;19.850;2023-04-24T04:12:41;6.5;;;4.2;;
51194;SDS011;37259;49.972;19.850;2023-04-24T04:13:41;6.5;;;4.2;;
51194;SDS011;37259;49.972;19.850;2023-04-24T04:14:41;6.5;;;4.2;;
51194;SDS011;37259;49.972;19.850;2023-04-24T04:15:41;6.5;;;4.2;;
51194;SDS011;37259;49.972;19.850;2023-04-24T04:16:41;6.5;;;4.2;;
51194;SDS011;37259;49.972;19.850;2023-04-24T04:17:41;6.5;;;4.2;;
51194;SDS011;37259;49.972;19.850;2023-04-24T04:18:41;6.5;;;4.2;;
51194;SDS011;37259;49.972;19.850;2023-04-24T04:19:41;6.5;;;4.2;;
51194;SDS011;37259;49.972;19.850;2023-04-24T04:20:41;6.5;;;4.2;;
51194;SDS011;37259;49.972;19.850;2023-04-24T04:21:41;6.5;;;4.2;;
51194;SDS011;37259;49.972;19.850;2023-04-24T04:22:41;6.5;;;4.2;;
51194;SDS011;37259;49.972;19.850;2023-04-24T04:23:41;6.5;;;4.2;;
51194;SDS011;37259;49.972;19.850;2023-04-24T04:24:41;6.5;;;4.2;;
51194;SDS011;37259;49.972;19.850;2023-04-24T04:25:41;6.5;;;4.2;;
51194;SDS011;37259;49.972;19.850;2023-04-24T04:26:41;6.5;;;4.2;;
51194;SDS011;37259;49.972;19.850;2023-04-24T04:27:41;6.5;;;4.2;;
51194;SDS011;37259;49.972;19.850;2023-04-24T04:28:41;6.5;;;4.2;;
51194;SDS011;37259;49.972;19.850;2023-04-24T04:29:41;6.5;;;4.2;;
51194;SDS011;37259;49.972;19.850;2023-04-24T04:30:41;6.5;;;4.2;;
51194;SDS011;37259;49.972;19.850;2023-04-24T04:31:41;6.5;;;4.2;;
51194;SDS011;37259;49.972;19.850;2023-04-24T04:32:41;6.5;;;4.2;;
51194;SDS011;37259;49.972;19.850;2023-04-24T04:33:42;6.5;;;4.2;;
51194;SDS011;37259;49.972;19.850;2023-04-24T04:34:41;6.5;;;4.2;;
51194;SDS011;37259;49.972;19.850;2023-04-24T04:35:41;6.5;;;4.2;;
51194;SDS011;37259;49.972;19.850;2023-04-24T04:36:41;6.5;;;4.2;;
51194;SDS011;37259;49.972;19.850;2023-04-24T04:37:41;6.8;;;4.3;;
51194;SDS011;37259;49.972;19.850;2023-04-24T04:38:41;6.8;;;4.3;;
51194;SDS011;37259;49.972;19.850;2023-04-24T04:39:41;6.8;;;4.3;;
51194;SDS011;37259;49.972;19.850;2023-04-24T04:40:41;6.8;;;4.3;;
51194;SDS011;37259;49.972;19.850;2023-04-24T04:41:41;6.8;;;4.3;;
51194;SDS011;37259;49.972;19.850;2023-04-24T04:42:41;6.8;;;4.3;;
51194;SDS011;37259;49.972;19.850;2023-04-24T04:43:41;6.8;;;4.3;;
51194;SDS011;37259;49.972;19.850;2023-04-24T04:44:41;6.8;;;4.3;;
51194;SDS011;37259;49.972;19.850;2023-04-24T04:45:41;6.8;;;4.3;;
51194;SDS011;37259;49.972;19.850;2023-04-24T04:46:41;6.8;;;4.3;;
51194;SDS011;37259;49.972;19.850;2023-04-24T04:47:41;6.8;;;4.3;;
51194;SDS011;37259;49.972;19.850;2023-04-24T04:48:41;6.8;;;4.3;;
51194;SDS011;37259;49.972;19.850;2023-04-24T04:49:41;6.8;;;4.3;;
51194;SDS011;37259;49.972;19.850;2023-04-24T04:50:41;6.8;;;4.3;;
51194;SDS011;37259;49.972;19.850;2023-04-24T04:51:41;6.8;;;4.3;;
51194;SDS011;37259;49.972;19.850;2023-04-24T04:52:41;6.8;;;4.3;;
51194;SDS011;37259;49.972;19.850;2023-04-24T04:53:41;6.8;;;4.3;;
51194;SDS011;37259;49.972;19.850;2023-04-24T04:54:41;6.8;;;4.3;;
51194;SDS011;37259;49.972;19.850;2023-04-24T04:55:41;6.8;;;4.3;;
51194;SDS011;37259;49.972;19.850;2023-04-24T04:56:41;6.8;;;4.3;;
51194;SDS011;37259;49.972;19.850;2023-04-24T04:57:41;6.8;;;4.3;;
51194;SDS011;37259;49.972;19.850;2023-04-24T04:58:41;6.8;;;4.3;;
51194;SDS011;37259;49.972;19.850;2023-04-24T04:59:41;6.8;;;4.3;;
51194;SDS011;37259;49.972;19.850;2023-04-24T05:00:41;6.8;;;4.3;;
51194;SDS011;37259;49.972;19.850;2023-04-24T05:01:41;6.8;;;4.3;;
51194;SDS011;37259;49.972;19.850;2023-04-24T05:02:41;6.8;;;4.3;;
51194;SDS011;37259;49.972;19.850;2023-04-24T05:03:41;6.8;;;4.3;;
51194;SDS011;37259;49.972;19.850;2023-04-24T05:04:41;6.8;;;4.3;;
51194;SDS011;37259;49.972;19.850;2023-04-24T05:05:41;6.8;;;4.3;;
51194;SDS011;37259;49.972;19.850;2023-04-24T05:06:41;6.8;;;4.3;;
51194;SDS011;37259;49.972;19.850;2023-04-24T05:07:41;9.3;;;5.3;;
51194;SDS011;37259;49.972;19.850;2023-04-24T05:08:41;9.3;;;5.3;;
51194;SDS011;37259;49.972;19.850;2023-04-24T05:09:41;9.3;;;5.3;;
51194;SDS011;37259;49.972;19.850;2023-04-24T05:10:41;9.3;;;5.3;;
51194;SDS011;37259;49.972;19.850;2023-04-24T05:11:41;9.3;;;5.3;;
51194;SDS011;37259;49.972;19.850;2023-04-24T05:12:41;9.3;;;5.3;;
51194;SDS011;37259;49.972;19.850;2023-04-24T05:13:41;9.3;;;5.3;;
51194;SDS011;37259;49.972;19.850;2023-04-24T05:14:41;9.3;;;5.3;;
51194;SDS011;37259;49.972;19.850;2023-04-24T05:15:41;9.3;;;5.3;;
51194;SDS011;37259;49.972;19.850;2023-04-24T05:16:41;9.3;;;5.3;;
51194;SDS011;37259;49.972;19.850;2023-04-24T05:17:42;9.3;;;5.3;;
51194;SDS011;37259;49.972;19.850;2023-04-24T05:18:41;9.3;;;5.3;;
51194;SDS011;37259;49.972;19.850;2023-04-24T05:19:41;9.3;;;5.3;;
51194;SDS011;37259;49.972;19.850;2023-04-24T05:20:41;9.3;;;5.3;;
51194;SDS011;37259;49.972;19.850;2023-04-24T05:21:41;9.3;;;5.3;;
51194;SDS011;37259;49.972;19.850;2023-04-24T05:22:41;9.3;;;5.3;;
51194;SDS011;37259;49.972;19.850;2023-04-24T05:23:41;9.3;;;5.3;;
51194;SDS011;37259;49.972;19.850;2023-04-24T05:24:41;9.3;;;5.3;;
51194;SDS011;37259;49.972;19.850;2023-04-24T05:25:41;9.3;;;5.3;;
51194;SDS011;37259;49.972;19.850;2023-04-24T05:26:41;9.3;;;5.3;;
51194;SDS011;37259;49.972;19.850;2023-04-24T05:27:41;9.3;;;5.3;;
51194;SDS011;37259;49.972;19.850;2023-04-24T05:28:41;9.3;;;5.3;;
51194;SDS011;37259;49.972;19.850;2023-04-24T05:29:41;9.3;;;5.3;;
51194;SDS011;37259;49.972;19.850;2023-04-24T05:30:41;9.3;;;5.3;;
51194;SDS011;37259;49.972;19.850;2023-04-24T05:31:41;9.3;;;5.3;;
51194;SDS011;37259;49.972;19.850;2023-04-24T05:32:41;9.3;;;5.3;;
51194;SDS011;37259;49.972;19.850;2023-04-24T05:33:42;9.3;;;5.3;;
51194;SDS011;37259;49.972;19.850;2023-04-24T05:34:41;9.3;;;5.3;;
51194;SDS011;37259;49.972;19.850;2023-04-24T05:35:41;9.3;;;5.3;;
51194;SDS011;37259;49.972;19.850;2023-04-24T05:36:41;9.3;;;5.3;;
51194;SDS011;37259;49.972;19.850;2023-04-24T05:37:41;10.9;;;5.5;;
51194;SDS011;37259;49.972;19.850;2023-04-24T05:38:41;10.9;;;5.5;;
51194;SDS011;37259;49.972;19.850;2023-04-24T05:39:41;10.9;;;5.5;;
51194;SDS011;37259;49.972;19.850;2023-04-24T05:40:41;10.9;;;5.5;;
51194;SDS011;37259;49.972;19.850;2023-04-24T05:41:41;10.9;;;5.5;;
51194;SDS011;37259;49.972;19.850;2023-04-24T05:42:42;10.9;;;5.5;;
51194;SDS011;37259;49.972;19.850;2023-04-24T05:43:41;10.9;;;5.5;;
51194;SDS011;37259;49.972;19.850;2023-04-24T05:44:41;10.9;;;5.5;;
51194;SDS011;37259;49.972;19.850;2023-04-24T05:45:41;10.9;;;5.5;;
51194;SDS011;37259;49.972;19.850;2023-04-24T05:46:41;10.9;;;5.5;;
51194;SDS011;37259;49.972;19.850;2023-04-24T05:47:41;10.9;;;5.5;;
51194;SDS011;37259;49.972;19.850;2023-04-24T05:48:41;10.9;;;5.5;;
51194;SDS011;37259;49.972;19.850;2023-04-24T05:49:41;10.9;;;5.5;;
51194;SDS011;37259;49.972;19.850;2023-04-24T05:50:41;10.9;;;5.5;;
51194;SDS011;37259;49.972;19.850;2023-04-24T05:51:41;10.9;;;5.5;;
51194;SDS011;37259;49.972;19.850;2023-04-24T05:52:41;10.9;;;5.5;;
51194;SDS011;37259;49.972;19.850;2023-04-24T05:53:41;10.9;;;5.5;;
51194;SDS011;37259;49.972;19.850;2023-04-24T05:54:41;10.9;;;5.5;;
51194;SDS011;37259;49.972;19.850;2023-04-24T05:55:41;10.9;;;5.5;;
51194;SDS011;37259;49.972;19.850;2023-04-24T05:56:41;10.9;;;5.5;;
51194;SDS011;37259;49.972;19.850;2023-04-24T05:57:41;10.9;;;5.5;;
51194;SDS011;37259;49.972;19.850;2023-04-24T05:58:41;10.9;;;5.5;;
51194;SDS011;37259;49.972;19.850;2023-04-24T05:59:41;10.9;;;5.5;;
51194;SDS011;37259;49.972;19.850;2023-04-24T06:00:41;10.9;;;5.5;;
51194;SDS011;37259;49.972;19.850;2023-04-24T06:01:41;10.9;;;5.5;;
51194;SDS011;37259;49.972;19.850;2023-04-24T06:02:42;10.9;;;5.5;;
51194;SDS011;37259;49.972;19.850;2023-04-24T06:03:41;10.9;;;5.5;;
51194;SDS011;37259;49.972;19.850;2023-04-24T06:04:41;10.9;;;5.5;;
51194;SDS011;37259;49.972;19.850;2023-04-24T06:05:41;10.9;;;5.5;;
51194;SDS011;37259;49.972;19.850;2023-04-24T06:06:41;10.9;;;5.5;;
51194;SDS011;37259;49.972;19.850;2023-04-24T06:07:41;7.5;;;4.3;;